Jump to content


SOUTHWEST AIRLINES FLIGHT WN6342 FLOWN ON 08-18-2017 BY CAPTAIN TYLER HANUS

Pilot StatsCaptain Tyler Hanus (LDP525) • 254.3 total hours • 59 total flights [View Logbook]
FLIGHT DETAILS
StatusReceived and approved on 2017-08-18 at 19:08:32
Origin AirportSan Francisco Intl (KSFO) • San Francisco, California, United States (13 feet MSL)
Filed Flight PlanFLIGHT PLANNER OFFLINE
Destination AirportChicago Midway Intl (KMDW) • Chicago, Illinois, United States (620 feet MSL)
Alternate AirportNone Filed
AirlineSouthwest Airlines
AircraftBoeing 737-800 | Winglets (73H / B737-800)
FS Aircraft UsedBoeing 737-8H4NGX Southwest Airlines (Warrior One) Winglets
Cruising AltitudeFL350
Distance Flown1,608 nautical miles
Passengers Onboard118 passengers (72.84% full)
DEPARTURE DETAILS
Time Out12:13:47
Taxi Data148,055 lbs total with 28,743 lbs of fuel onboard
Takeoff Data12:37:15 (23 minutes after leaving gate/ramp) • 147,506 lbs total • 4° pitch at 150 knots
Departure METARKSFO 181756Z 05005KT 10SM FEW010 20/14 A3000 RMK AO2 SLP158 T02000139 10200 20161 58004
ARRIVAL DETAILS
Landing Data18:16:19 • 125,860 lbs total • 2° pitch doing 126 knots at a rate of -148.41 feet/minute with 6,166 lbs of fuel onboard
Time In18:24:48 (8 minutes after landing)
Ramp Weight125,478 lbs total
Total Fuel Used22,577 lbs
Total Block Time04:03:40 (4.1 hours) while 32 minutes were spent on the ground
Arrival METARKMDW 182253Z 26012KT 10SM FEW110 FEW250 28/15 A2984 RMK AO2 SLP094 T02780150
MISCELLANEOUS DETAILS
LiveDISPATCH Version4.8.3.1
FS Version
FSUIPC Version4.96
OS VersionWindows 7 32-bit
Screen Resolution1360 x 768
Pilot's CommentsNo Comments Reported
FLIGHT MAP